East Hampstead, New Hampshire
Current Conditions -  °F | °C
As of 4:54 AM on Monday 26 Jan 2015 (Local Time) from KLWM Reporting Station
Clear Clear  
Wind Chill: -4°   Ceiling: Unl
Heat Index:   Visibility: 10mi
Dew Point: -4°   Wind: 8mph
Humidity: 58%   Direction: 350°N
Pressure: 30.13"   Gusts: NA
Location:  42.89°N, 71.14°W
Report Text: KLWM 260954Z AUTO 35007KT 10SM CLR M13/M20 A3013 RMK AO2 SLP205 T11331200
Loading
Personal Weather Stations






























Interactive Weather Map New forecast layout! Learn more

10-Day Weather Forecast

Advertisements
Track Severe Weather on mobile